sensor_id;sensor_type;location;lat;lon;timestamp;pressure;altitude;pressure_sealevel;temperature;humidity
61870;BME280;47810;42.264;23.826;2023-02-28T00:02:18;94271.97;;;7.57;81.09
61870;BME280;47810;42.264;23.826;2023-02-28T00:04:43;94274.69;;;7.92;79.83
61870;BME280;47810;42.264;23.826;2023-02-28T00:07:09;94284.06;;;7.61;80.64
61870;BME280;47810;42.264;23.826;2023-02-28T00:09:34;94268.06;;;7.28;81.99
61870;BME280;47810;42.264;23.826;2023-02-28T00:12:00;94272.84;;;7.39;81.56
61870;BME280;47810;42.264;23.826;2023-02-28T00:14:29;94277.16;;;7.40;81.77
61870;BME280;47810;42.264;23.826;2023-02-28T00:16:55;94292.56;;;7.47;81.56
61870;BME280;47810;42.264;23.826;2023-02-28T00:19:22;94293.56;;;7.45;81.75
61870;BME280;47810;42.264;23.826;2023-02-28T00:21:48;94289.88;;;7.49;81.32
61870;BME280;47810;42.264;23.826;2023-02-28T00:24:13;94294.84;;;7.55;80.92
61870;BME280;47810;42.264;23.826;2023-02-28T00:26:39;94292.69;;;7.63;81.45
61870;BME280;47810;42.264;23.826;2023-02-28T00:29:04;94284.19;;;7.58;81.57
61870;BME280;47810;42.264;23.826;2023-02-28T00:31:30;94289.72;;;7.52;81.84
61870;BME280;47810;42.264;23.826;2023-02-28T00:33:55;94281.75;;;7.73;81.17
61870;BME280;47810;42.264;23.826;2023-02-28T00:36:21;94280.19;;;7.68;81.37
61870;BME280;47810;42.264;23.826;2023-02-28T00:38:46;94277.56;;;7.68;81.49
61870;BME280;47810;42.264;23.826;2023-02-28T00:41:12;94279.22;;;7.52;81.85
61870;BME280;47810;42.264;23.826;2023-02-28T00:43:39;94276.75;;;7.49;81.84
61870;BME280;47810;42.264;23.826;2023-02-28T00:46:05;94284.06;;;7.61;81.83
61870;BME280;47810;42.264;23.826;2023-02-28T00:48:30;94277.91;;;7.80;81.09
61870;BME280;47810;42.264;23.826;2023-02-28T00:50:56;94275.09;;;7.65;81.09
61870;BME280;47810;42.264;23.826;2023-02-28T00:53:21;94271.53;;;7.66;80.99
61870;BME280;47810;42.264;23.826;2023-02-28T00:55:48;94274.09;;;7.68;81.08
61870;BME280;47810;42.264;23.826;2023-02-28T00:58:13;94273.59;;;7.60;81.46
61870;BME280;47810;42.264;23.826;2023-02-28T01:00:40;94270.13;;;7.59;81.67
61870;BME280;47810;42.264;23.826;2023-02-28T01:03:05;94272.22;;;7.89;80.48
61870;BME280;47810;42.264;23.826;2023-02-28T01:05:31;94272.03;;;7.75;80.62
61870;BME280;47810;42.264;23.826;2023-02-28T01:07:57;94268.78;;;7.51;81.51
61870;BME280;47810;42.264;23.826;2023-02-28T01:10:24;94266.41;;;7.63;81.42
61870;BME280;47810;42.264;23.826;2023-02-28T01:12:50;94247.41;;;7.58;81.04
61870;BME280;47810;42.264;23.826;2023-02-28T01:15:15;94256.66;;;7.48;81.41
61870;BME280;47810;42.264;23.826;2023-02-28T01:17:41;94256.94;;;7.42;81.79
61870;BME280;47810;42.264;23.826;2023-02-28T01:20:07;94252.53;;;7.42;81.92
61870;BME280;47810;42.264;23.826;2023-02-28T01:22:35;94248.41;;;7.37;82.21
61870;BME280;47810;42.264;23.826;2023-02-28T01:25:00;94253.94;;;7.31;81.98
61870;BME280;47810;42.264;23.826;2023-02-28T01:27:26;94256.28;;;7.37;82.25
61870;BME280;47810;42.264;23.826;2023-02-28T01:29:52;94262.06;;;7.45;81.60
61870;BME280;47810;42.264;23.826;2023-02-28T01:32:17;94262.38;;;7.37;81.69
61870;BME280;47810;42.264;23.826;2023-02-28T01:34:44;94260.59;;;7.19;82.11
61870;BME280;47810;42.264;23.826;2023-02-28T01:37:09;94274.78;;;6.96;82.59
61870;BME280;47810;42.264;23.826;2023-02-28T01:39:35;94271.66;;;6.88;83.18
61870;BME280;47810;42.264;23.826;2023-02-28T01:42:01;94275.03;;;6.50;84.35
61870;BME280;47810;42.264;23.826;2023-02-28T01:47:10;94263.94;;;6.64;84.00
61870;BME280;47810;42.264;23.826;2023-02-28T01:49:36;94273.13;;;6.74;84.08
61870;BME280;47810;42.264;23.826;2023-02-28T01:52:02;94269.38;;;6.99;82.82
61870;BME280;47810;42.264;23.826;2023-02-28T01:54:30;94269.94;;;6.87;82.42
61870;BME280;47810;42.264;23.826;2023-02-28T01:56:57;94265.66;;;6.65;83.33
61870;BME280;47810;42.264;23.826;2023-02-28T01:59:34;94264.75;;;6.46;84.30
61870;BME280;47810;42.264;23.826;2023-02-28T02:02:01;94273.13;;;6.54;84.03
61870;BME280;47810;42.264;23.826;2023-02-28T02:04:27;94272.72;;;6.63;83.82
61870;BME280;47810;42.264;23.826;2023-02-28T02:06:58;94277.03;;;6.64;83.87
61870;BME280;47810;42.264;23.826;2023-02-28T02:09:23;94281.00;;;6.74;83.42
61870;BME280;47810;42.264;23.826;2023-02-28T02:11:49;94279.28;;;6.73;82.79
61870;BME280;47810;42.264;23.826;2023-02-28T02:31:51;94330.84;;;6.54;83.13
61870;BME280;47810;42.264;23.826;2023-02-28T02:34:26;94328.88;;;6.59;82.59
61870;BME280;47810;42.264;23.826;2023-02-28T02:36:58;94331.09;;;6.48;82.84
61870;BME280;47810;42.264;23.826;2023-02-28T02:39:32;94335.69;;;6.63;82.32
61870;BME280;47810;42.264;23.826;2023-02-28T02:42:02;94332.94;;;6.46;82.67
61870;BME280;47810;42.264;23.826;2023-02-28T02:44:48;94333.28;;;6.59;82.68
61870;BME280;47810;42.264;23.826;2023-02-28T02:47:20;94333.88;;;6.65;81.56
61870;BME280;47810;42.264;23.826;2023-02-28T02:49:50;94339.50;;;6.56;82.01
61870;BME280;47810;42.264;23.826;2023-02-28T02:52:18;94341.31;;;6.54;81.48
61870;BME280;47810;42.264;23.826;2023-02-28T02:54:46;94353.44;;;6.36;82.04
61870;BME280;47810;42.264;23.826;2023-02-28T02:57:15;94350.88;;;6.35;82.46
61870;BME280;47810;42.264;23.826;2023-02-28T02:59:44;94348.56;;;6.49;81.93
61870;BME280;47810;42.264;23.826;2023-02-28T03:02:11;94350.38;;;6.47;81.84
61870;BME280;47810;42.264;23.826;2023-02-28T03:04:45;94349.31;;;6.30;82.21
61870;BME280;47810;42.264;23.826;2023-02-28T03:07:13;94339.53;;;6.34;82.64
61870;BME280;47810;42.264;23.826;2023-02-28T03:09:38;94339.53;;;6.34;82.04
61870;BME280;47810;42.264;23.826;2023-02-28T03:12:04;94345.34;;;6.20;82.61
61870;BME280;47810;42.264;23.826;2023-02-28T03:14:36;94350.59;;;5.98;83.17
61870;BME280;47810;42.264;23.826;2023-02-28T03:18:08;94356.25;;;6.10;83.27
61870;BME280;47810;42.264;23.826;2023-02-28T03:22:45;94353.81;;;6.27;82.14
61870;BME280;47810;42.264;23.826;2023-02-28T03:25:27;94356.50;;;6.25;82.10
61870;BME280;47810;42.264;23.826;2023-02-28T03:28:03;94355.88;;;6.41;81.90
61870;BME280;47810;42.264;23.826;2023-02-28T03:33:13;94358.56;;;6.39;81.61
61870;BME280;47810;42.264;23.826;2023-02-28T03:35:41;94354.53;;;6.30;81.54
61870;BME280;47810;42.264;23.826;2023-02-28T03:38:43;94370.88;;;6.15;82.13
61870;BME280;47810;42.264;23.826;2023-02-28T03:43:35;94358.59;;;6.17;81.84
61870;BME280;47810;42.264;23.826;2023-02-28T03:46:05;94352.91;;;6.06;82.37
61870;BME280;47810;42.264;23.826;2023-02-28T03:48:40;94361.25;;;6.16;81.93
61870;BME280;47810;42.264;23.826;2023-02-28T03:51:08;94364.06;;;6.11;82.01
61870;BME280;47810;42.264;23.826;2023-02-28T03:53:37;94358.59;;;6.17;81.81
61870;BME280;47810;42.264;23.826;2023-02-28T03:58:57;94372.09;;;5.84;82.29
61870;BME280;47810;42.264;23.826;2023-02-28T04:01:33;94373.22;;;6.01;82.65
61870;BME280;47810;42.264;23.826;2023-02-28T04:04:00;94375.16;;;5.96;82.19
61870;BME280;47810;42.264;23.826;2023-02-28T04:06:27;94373.47;;;5.95;82.57
61870;BME280;47810;42.264;23.826;2023-02-28T04:08:55;94376.63;;;6.03;82.41
61870;BME280;47810;42.264;23.826;2023-02-28T04:11:27;94382.41;;;6.11;82.09
61870;BME280;47810;42.264;23.826;2023-02-28T04:13:55;94382.84;;;6.22;82.13
61870;BME280;47810;42.264;23.826;2023-02-28T04:16:21;94384.47;;;6.03;82.48
61870;BME280;47810;42.264;23.826;2023-02-28T04:18:47;94385.41;;;6.02;83.08
61870;BME280;47810;42.264;23.826;2023-02-28T04:21:12;94384.84;;;5.94;83.28
61870;BME280;47810;42.264;23.826;2023-02-28T04:26:06;94394.00;;;6.27;81.75
61870;BME280;47810;42.264;23.826;2023-02-28T04:28:33;94382.69;;;6.03;82.89
61870;BME280;47810;42.264;23.826;2023-02-28T04:31:00;94384.50;;;5.79;83.78
61870;BME280;47810;42.264;23.826;2023-02-28T04:33:27;94380.06;;;5.81;83.68
61870;BME280;47810;42.264;23.826;2023-02-28T04:36:02;94385.97;;;5.87;83.74
61870;BME280;47810;42.264;23.826;2023-02-28T04:38:29;94388.94;;;6.01;83.33
61870;BME280;47810;42.264;23.826;2023-02-28T04:40:58;94386.97;;;6.06;83.17
61870;BME280;47810;42.264;23.826;2023-02-28T04:43:25;94393.84;;;6.10;83.65
61870;BME280;47810;42.264;23.826;2023-02-28T04:45:52;94391.25;;;6.30;83.08
61870;BME280;47810;42.264;23.826;2023-02-28T04:48:18;94401.03;;;6.27;83.28
61870;BME280;47810;42.264;23.826;2023-02-28T04:50:43;94396.75;;;6.24;82.91
61870;BME280;47810;42.264;23.826;2023-02-28T04:53:09;94400.34;;;6.44;82.55
61870;BME280;47810;42.264;23.826;2023-02-28T04:55:35;94403.06;;;6.41;81.96
61870;BME280;47810;42.264;23.826;2023-02-28T04:58:01;94400.06;;;6.29;82.51
61870;BME280;47810;42.264;23.826;2023-02-28T05:00:26;94402.28;;;6.39;82.48
61870;BME280;47810;42.264;23.826;2023-02-28T05:02:52;94398.81;;;6.38;82.31
61870;BME280;47810;42.264;23.826;2023-02-28T05:05:19;94404.84;;;6.40;82.56
61870;BME280;47810;42.264;23.826;2023-02-28T05:07:45;94402.03;;;6.45;82.76
61870;BME280;47810;42.264;23.826;2023-02-28T05:10:11;94407.28;;;6.45;83.10
61870;BME280;47810;42.264;23.826;2023-02-28T05:12:37;94408.88;;;6.49;82.60
61870;BME280;47810;42.264;23.826;2023-02-28T05:15:03;94414.94;;;6.71;81.72
61870;BME280;47810;42.264;23.826;2023-02-28T05:17:30;94425.38;;;6.73;81.62
61870;BME280;47810;42.264;23.826;2023-02-28T05:19:55;94427.47;;;6.65;81.44
61870;BME280;47810;42.264;23.826;2023-02-28T05:22:21;94423.19;;;6.62;81.69
61870;BME280;47810;42.264;23.826;2023-02-28T05:24:46;94429.53;;;6.57;81.81
61870;BME280;47810;42.264;23.826;2023-02-28T05:27:13;94432.50;;;6.49;81.74
61870;BME280;47810;42.264;23.826;2023-02-28T05:29:40;94431.13;;;6.61;81.06
61870;BME280;47810;42.264;23.826;2023-02-28T05:32:09;94437.22;;;6.61;80.80
61870;BME280;47810;42.264;23.826;2023-02-28T05:34:36;94433.81;;;6.59;80.90
61870;BME280;47810;42.264;23.826;2023-02-28T05:37:01;94439.06;;;6.59;81.69
61870;BME280;47810;42.264;23.826;2023-02-28T05:39:28;94438.34;;;6.56;81.21
61870;BME280;47810;42.264;23.826;2023-02-28T05:41:56;94442.63;;;6.58;81.13
61870;BME280;47810;42.264;23.826;2023-02-28T05:44:21;94439.16;;;6.36;82.08
61870;BME280;47810;42.264;23.826;2023-02-28T05:46:47;94449.81;;;6.53;81.22
61870;BME280;47810;42.264;23.826;2023-02-28T05:49:12;94451.97;;;6.64;80.96
61870;BME280;47810;42.264;23.826;2023-02-28T05:51:38;94450.22;;;6.64;80.35
61870;BME280;47810;42.264;23.826;2023-02-28T05:54:05;94454.56;;;6.65;80.20
61870;BME280;47810;42.264;23.826;2023-02-28T05:56:32;94453.59;;;6.68;80.18
61870;BME280;47810;42.264;23.826;2023-02-28T05:59:00;94458.50;;;6.75;80.15
61870;BME280;47810;42.264;23.826;2023-02-28T06:01:44;94465.53;;;6.75;79.88
61870;BME280;47810;42.264;23.826;2023-02-28T06:04:14;94459.31;;;6.78;80.05
61870;BME280;47810;42.264;23.826;2023-02-28T06:06:46;94459.97;;;6.83;79.73
61870;BME280;47810;42.264;23.826;2023-02-28T06:09:12;94468.56;;;6.86;80.36
61870;BME280;47810;42.264;23.826;2023-02-28T06:11:39;94462.72;;;6.80;80.08
61870;BME280;47810;42.264;23.826;2023-02-28T06:14:17;94478.28;;;6.84;80.08
61870;BME280;47810;42.264;23.826;2023-02-28T06:16:43;94480.56;;;6.71;81.16
61870;BME280;47810;42.264;23.826;2023-02-28T06:19:09;94481.75;;;6.63;81.41
61870;BME280;47810;42.264;23.826;2023-02-28T06:21:37;94480.69;;;6.68;81.63
61870;BME280;47810;42.264;23.826;2023-02-28T06:24:08;94482.25;;;6.72;81.38
61870;BME280;47810;42.264;23.826;2023-02-28T06:26:37;94481.88;;;6.82;81.75
61870;BME280;47810;42.264;23.826;2023-02-28T06:29:03;94477.09;;;6.71;81.63
61870;BME280;47810;42.264;23.826;2023-02-28T06:31:30;94482.38;;;6.69;81.50
61870;BME280;47810;42.264;23.826;2023-02-28T06:33:57;94483.06;;;6.74;81.94
61870;BME280;47810;42.264;23.826;2023-02-28T06:36:23;94485.28;;;6.84;81.60
61870;BME280;47810;42.264;23.826;2023-02-28T06:38:49;94487.28;;;6.77;81.73
61870;BME280;47810;42.264;23.826;2023-02-28T06:41:22;94482.13;;;6.75;81.75
61870;BME280;47810;42.264;23.826;2023-02-28T06:43:48;94482.75;;;6.60;83.44
61870;BME280;47810;42.264;23.826;2023-02-28T06:46:19;94489.69;;;6.61;83.43
61870;BME280;47810;42.264;23.826;2023-02-28T06:48:45;94491.41;;;6.84;83.28
61870;BME280;47810;42.264;23.826;2023-02-28T06:51:14;94491.75;;;6.97;82.34
61870;BME280;47810;42.264;23.826;2023-02-28T06:53:41;94486.41;;;6.78;83.40
61870;BME280;47810;42.264;23.826;2023-02-28T06:56:08;94491.69;;;6.76;83.88
61870;BME280;47810;42.264;23.826;2023-02-28T06:58:41;94485.69;;;6.74;84.43
61870;BME280;47810;42.264;23.826;2023-02-28T07:01:07;94492.97;;;6.88;84.12
61870;BME280;47810;42.264;23.826;2023-02-28T07:03:35;94493.56;;;6.74;85.02
61870;BME280;47810;42.264;23.826;2023-02-28T07:06:00;94490.69;;;6.81;86.21
61870;BME280;47810;42.264;23.826;2023-02-28T07:10:55;94492.97;;;7.10;86.24
61870;BME280;47810;42.264;23.826;2023-02-28T07:13:23;94494.16;;;7.23;86.14
61870;BME280;47810;42.264;23.826;2023-02-28T07:18:22;94484.34;;;7.27;85.20
61870;BME280;47810;42.264;23.826;2023-02-28T07:20:48;94489.22;;;7.36;84.81
61870;BME280;47810;42.264;23.826;2023-02-28T07:23:13;94489.94;;;7.40;84.29
61870;BME280;47810;42.264;23.826;2023-02-28T07:25:50;94494.72;;;7.51;84.26
61870;BME280;47810;42.264;23.826;2023-02-28T07:28:17;94488.56;;;7.52;84.45
61870;BME280;47810;42.264;23.826;2023-02-28T07:30:43;94492.81;;;7.54;84.70
61870;BME280;47810;42.264;23.826;2023-02-28T07:33:09;94494.16;;;7.64;83.99
61870;BME280;47810;42.264;23.826;2023-02-28T07:35:34;94495.56;;;7.72;83.29
61870;BME280;47810;42.264;23.826;2023-02-28T07:38:02;94506.81;;;7.75;83.40
61870;BME280;47810;42.264;23.826;2023-02-28T07:40:30;94508.59;;;7.75;83.05
61870;BME280;47810;42.264;23.826;2023-02-28T07:43:00;94517.09;;;7.80;83.29
61870;BME280;47810;42.264;23.826;2023-02-28T07:45:35;94523.44;;;7.76;82.25
61870;BME280;47810;42.264;23.826;2023-02-28T07:48:09;94517.72;;;7.66;82.36
61870;BME280;47810;42.264;23.826;2023-02-28T07:53:27;94516.47;;;7.75;83.06
61870;BME280;47810;42.264;23.826;2023-02-28T07:58:34;94511.47;;;7.68;82.95
61870;BME280;47810;42.264;23.826;2023-02-28T08:01:16;94510.94;;;7.81;82.74
61870;BME280;47810;42.264;23.826;2023-02-28T08:03:43;94503.38;;;7.73;82.86
61870;BME280;47810;42.264;23.826;2023-02-28T08:06:15;94500.84;;;7.72;82.46
61870;BME280;47810;42.264;23.826;2023-02-28T08:08:42;94495.44;;;7.75;82.57
61870;BME280;47810;42.264;23.826;2023-02-28T08:11:08;94490.78;;;7.81;82.75
61870;BME280;47810;42.264;23.826;2023-02-28T08:13:36;94479.97;;;7.87;82.58
61870;BME280;47810;42.264;23.826;2023-02-28T08:16:02;94473.75;;;7.90;82.59
61870;BME280;47810;42.264;23.826;2023-02-28T08:18:38;94479.00;;;7.90;82.31
61870;BME280;47810;42.264;23.826;2023-02-28T08:24:14;94474.94;;;8.02;83.24
61870;BME280;47810;42.264;23.826;2023-02-28T08:26:43;94470.38;;;8.05;83.06
61870;BME280;47810;42.264;23.826;2023-02-28T08:29:10;94470.75;;;8.16;82.77
61870;BME280;47810;42.264;23.826;2023-02-28T08:31:37;94470.34;;;8.26;82.58
61870;BME280;47810;42.264;23.826;2023-02-28T08:34:07;94465.94;;;8.26;82.07
61870;BME280;47810;42.264;23.826;2023-02-28T08:36:33;94465.41;;;8.37;82.40
61870;BME280;47810;42.264;23.826;2023-02-28T08:39:00;94472.91;;;8.46;82.41
61870;BME280;47810;42.264;23.826;2023-02-28T08:44:00;94480.72;;;8.29;81.38
61870;BME280;47810;42.264;23.826;2023-02-28T08:46:26;94477.31;;;8.27;81.32
61870;BME280;47810;42.264;23.826;2023-02-28T08:48:53;94487.41;;;8.17;81.19
61870;BME280;47810;42.264;23.826;2023-02-28T08:51:21;94485.00;;;8.12;81.09
61870;BME280;47810;42.264;23.826;2023-02-28T08:53:51;94490.22;;;7.93;81.53
61870;BME280;47810;42.264;23.826;2023-02-28T08:56:19;94489.78;;;7.84;82.39
61870;BME280;47810;42.264;23.826;2023-02-28T08:58:48;94494.59;;;7.74;82.73
61870;BME280;47810;42.264;23.826;2023-02-28T09:01:25;94497.22;;;7.54;82.98
61870;BME280;47810;42.264;23.826;2023-02-28T09:03:55;94506.38;;;7.45;83.73
61870;BME280;47810;42.264;23.826;2023-02-28T09:06:21;94499.22;;;7.49;84.85
61870;BME280;47810;42.264;23.826;2023-02-28T09:08:47;94498.94;;;7.55;84.91
61870;BME280;47810;42.264;23.826;2023-02-28T09:11:16;94500.91;;;7.50;84.49
61870;BME280;47810;42.264;23.826;2023-02-28T09:16:11;94506.81;;;7.34;85.92
61870;BME280;47810;42.264;23.826;2023-02-28T09:21:12;94506.59;;;7.18;86.63
61870;BME280;47810;42.264;23.826;2023-02-28T09:23:45;94506.84;;;7.12;86.83
61870;BME280;47810;42.264;23.826;2023-02-28T09:26:16;94513.38;;;7.04;86.70
61870;BME280;47810;42.264;23.826;2023-02-28T09:28:46;94519.22;;;7.10;86.91
61870;BME280;47810;42.264;23.826;2023-02-28T09:31:13;94521.41;;;6.99;86.85
61870;BME280;47810;42.264;23.826;2023-02-28T09:33:41;94518.50;;;6.85;87.29
61870;BME280;47810;42.264;23.826;2023-02-28T09:36:08;94517.81;;;6.80;87.83
61870;BME280;47810;42.264;23.826;2023-02-28T09:38:33;94517.16;;;6.74;88.06
61870;BME280;47810;42.264;23.826;2023-02-28T09:41:08;94514.44;;;6.78;88.58
61870;BME280;47810;42.264;23.826;2023-02-28T09:43:35;94521.91;;;6.87;88.16
61870;BME280;47810;42.264;23.826;2023-02-28T09:48:39;94523.50;;;6.91;87.82
61870;BME280;47810;42.264;23.826;2023-02-28T09:53:55;94513.78;;;6.93;87.64
61870;BME280;47810;42.264;23.826;2023-02-28T09:56:39;94518.91;;;6.96;87.17
61870;BME280;47810;42.264;23.826;2023-02-28T10:01:39;94509.47;;;6.92;87.84
61870;BME280;47810;42.264;23.826;2023-02-28T10:06:52;94499.75;;;6.94;88.10
61870;BME280;47810;42.264;23.826;2023-02-28T10:09:25;94503.72;;;6.82;87.90
61870;BME280;47810;42.264;23.826;2023-02-28T10:11:52;94496.91;;;6.78;88.16
61870;BME280;47810;42.264;23.826;2023-02-28T10:14:23;94487.38;;;6.75;88.41
61870;BME280;47810;42.264;23.826;2023-02-28T10:16:51;94495.44;;;6.71;88.65
61870;BME280;47810;42.264;23.826;2023-02-28T10:22:03;94491.56;;;6.80;88.29
61870;BME280;47810;42.264;23.826;2023-02-28T10:24:35;94488.47;;;6.70;88.78
61870;BME280;47810;42.264;23.826;2023-02-28T10:27:09;94487.88;;;6.63;88.88
61870;BME280;47810;42.264;23.826;2023-02-28T10:29:37;94487.00;;;6.63;88.87
61870;BME280;47810;42.264;23.826;2023-02-28T10:32:05;94480.06;;;6.62;88.96
61870;BME280;47810;42.264;23.826;2023-02-28T10:34:33;94475.84;;;6.58;89.22
61870;BME280;47810;42.264;23.826;2023-02-28T10:36:59;94479.34;;;6.58;89.34
61870;BME280;47810;42.264;23.826;2023-02-28T10:39:42;94483.41;;;6.65;89.00
61870;BME280;47810;42.264;23.826;2023-02-28T10:42:20;94480.44;;;6.52;89.09
61870;BME280;47810;42.264;23.826;2023-02-28T10:44:47;94470.09;;;6.48;89.44
61870;BME280;47810;42.264;23.826;2023-02-28T10:47:17;94468.66;;;6.41;89.89
61870;BME280;47810;42.264;23.826;2023-02-28T10:49:49;94465.38;;;6.36;90.27
61870;BME280;47810;42.264;23.826;2023-02-28T10:52:39;94459.44;;;6.30;90.53
61870;BME280;47810;42.264;23.826;2023-02-28T10:55:15;94450.53;;;6.35;90.20
61870;BME280;47810;42.264;23.826;2023-02-28T10:57:41;94441.63;;;6.39;89.96
61870;BME280;47810;42.264;23.826;2023-02-28T11:02:47;94439.56;;;6.47;89.11
61870;BME280;47810;42.264;23.826;2023-02-28T11:05:29;94439.19;;;6.56;88.94
61870;BME280;47810;42.264;23.826;2023-02-28T11:08:06;94441.97;;;6.73;88.88
61870;BME280;47810;42.264;23.826;2023-02-28T11:10:37;94437.66;;;6.93;88.09
61870;BME280;47810;42.264;23.826;2023-02-28T11:13:06;94448.09;;;7.15;87.38
61870;BME280;47810;42.264;23.826;2023-02-28T11:15:34;94445.16;;;7.43;86.29
61870;BME280;47810;42.264;23.826;2023-02-28T11:20:39;94439.94;;;7.62;85.13
61870;BME280;47810;42.264;23.826;2023-02-28T11:23:05;94441.53;;;7.45;85.54
61870;BME280;47810;42.264;23.826;2023-02-28T11:25:37;94439.63;;;7.49;85.04
61870;BME280;47810;42.264;23.826;2023-02-28T11:28:05;94427.63;;;7.43;85.20
61870;BME280;47810;42.264;23.826;2023-02-28T11:30:41;94436.88;;;7.52;84.70
61870;BME280;47810;42.264;23.826;2023-02-28T11:35:46;94431.34;;;7.58;84.06
61870;BME280;47810;42.264;23.826;2023-02-28T11:38:15;94418.69;;;7.66;83.78
61870;BME280;47810;42.264;23.826;2023-02-28T11:41:02;94410.47;;;7.55;83.53
61870;BME280;47810;42.264;23.826;2023-02-28T11:51:47;94416.91;;;7.28;85.12
61870;BME280;47810;42.264;23.826;2023-02-28T11:54:35;94420.34;;;7.30;85.58
61870;BME280;47810;42.264;23.826;2023-02-28T12:04:50;94406.19;;;7.13;86.46
61870;BME280;47810;42.264;23.826;2023-02-28T12:07:25;94407.66;;;7.19;86.59
61870;BME280;47810;42.264;23.826;2023-02-28T12:10:03;94399.47;;;7.27;86.04
61870;BME280;47810;42.264;23.826;2023-02-28T12:12:47;94415.88;;;7.11;86.43
61870;BME280;47810;42.264;23.826;2023-02-28T12:28:16;94412.47;;;7.09;86.75
61870;BME280;47810;42.264;23.826;2023-02-28T12:30:49;94415.69;;;6.95;87.03
61870;BME280;47810;42.264;23.826;2023-02-28T12:33:19;94422.72;;;6.95;87.18
61870;BME280;47810;42.264;23.826;2023-02-28T12:35:57;94420.59;;;6.83;87.71
61870;BME280;47810;42.264;23.826;2023-02-28T12:38:25;94422.03;;;6.90;87.57
61870;BME280;47810;42.264;23.826;2023-02-28T12:41:05;94424.53;;;6.93;87.17
61870;BME280;47810;42.264;23.826;2023-02-28T12:43:43;94415.22;;;6.86;87.79
61870;BME280;47810;42.264;23.826;2023-02-28T12:46:12;94411.78;;;6.84;87.15
61870;BME280;47810;42.264;23.826;2023-02-28T12:51:37;94404.41;;;6.93;87.73
61870;BME280;47810;42.264;23.826;2023-02-28T12:59:22;94407.03;;;6.93;87.11
61870;BME280;47810;42.264;23.826;2023-02-28T13:04:45;94393.63;;;7.20;86.28
61870;BME280;47810;42.264;23.826;2023-02-28T13:09:57;94385.63;;;7.23;86.40
61870;BME280;47810;42.264;23.826;2023-02-28T13:12:24;94380.03;;;7.31;86.24
61870;BME280;47810;42.264;23.826;2023-02-28T13:14:50;94385.28;;;7.31;86.10
61870;BME280;47810;42.264;23.826;2023-02-28T13:17:19;94386.84;;;7.35;85.89
61870;BME280;47810;42.264;23.826;2023-02-28T13:24:53;94385.66;;;7.21;86.50
61870;BME280;47810;42.264;23.826;2023-02-28T13:29:49;94382.28;;;7.19;85.88
61870;BME280;47810;42.264;23.826;2023-02-28T13:47:40;94393.31;;;7.07;86.18
61870;BME280;47810;42.264;23.826;2023-02-28T13:55:19;94389.44;;;6.95;86.20
61870;BME280;47810;42.264;23.826;2023-02-28T13:57:57;94390.78;;;6.84;86.21
61870;BME280;47810;42.264;23.826;2023-02-28T14:06:07;94388.66;;;6.93;86.38
61870;BME280;47810;42.264;23.826;2023-02-28T14:08:34;94387.00;;;6.91;86.55
61870;BME280;47810;42.264;23.826;2023-02-28T14:11:04;94381.94;;;6.86;86.62
61870;BME280;47810;42.264;23.826;2023-02-28T14:13:43;94380.28;;;6.84;86.55
61870;BME280;47810;42.264;23.826;2023-02-28T14:16:22;94387.91;;;6.90;86.74
61870;BME280;47810;42.264;23.826;2023-02-28T14:18:56;94384.38;;;6.91;86.74
61870;BME280;47810;42.264;23.826;2023-02-28T14:31:53;94375.50;;;6.73;87.42
61870;BME280;47810;42.264;23.826;2023-02-28T14:34:43;94375.00;;;6.65;87.29
61870;BME280;47810;42.264;23.826;2023-02-28T14:37:15;94370.47;;;6.68;87.44
61870;BME280;47810;42.264;23.826;2023-02-28T14:39:42;94376.38;;;6.73;87.51
61870;BME280;47810;42.264;23.826;2023-02-28T14:42:54;94379.50;;;6.61;87.54
61870;BME280;47810;42.264;23.826;2023-02-28T14:44:58;94385.03;;;6.55;87.90
61870;BME280;47810;42.264;23.826;2023-02-28T14:47:25;94374.53;;;6.55;88.22
61870;BME280;47810;42.264;23.826;2023-02-28T14:49:52;94372.53;;;6.60;88.04
61870;BME280;47810;42.264;23.826;2023-02-28T14:52:25;94370.34;;;6.71;88.56
61870;BME280;47810;42.264;23.826;2023-02-28T14:55:06;94368.34;;;6.56;88.08
61870;BME280;47810;42.264;23.826;2023-02-28T14:57:34;94361.00;;;6.44;88.25
61870;BME280;47810;42.264;23.826;2023-02-28T15:02:35;94366.34;;;6.41;88.29
61870;BME280;47810;42.264;23.826;2023-02-28T15:07:43;94372.06;;;6.50;88.50
61870;BME280;47810;42.264;23.826;2023-02-28T15:10:23;94369.53;;;6.49;88.55
61870;BME280;47810;42.264;23.826;2023-02-28T15:15:17;94374.06;;;6.45;88.57
61870;BME280;47810;42.264;23.826;2023-02-28T15:17:45;94371.47;;;6.44;88.58
61870;BME280;47810;42.264;23.826;2023-02-28T15:20:12;94377.09;;;6.35;88.85
61870;BME280;47810;42.264;23.826;2023-02-28T15:22:38;94385.22;;;6.28;89.15
61870;BME280;47810;42.264;23.826;2023-02-28T15:25:04;94380.41;;;6.40;89.23
61870;BME280;47810;42.264;23.826;2023-02-28T15:27:32;94381.72;;;6.50;89.08
61870;BME280;47810;42.264;23.826;2023-02-28T15:30:08;94381.47;;;6.56;89.13
61870;BME280;47810;42.264;23.826;2023-02-28T15:32:35;94377.69;;;6.41;89.27
61870;BME280;47810;42.264;23.826;2023-02-28T15:35:26;94389.44;;;6.33;89.12
61870;BME280;47810;42.264;23.826;2023-02-28T15:37:54;94394.47;;;6.37;90.22
61870;BME280;47810;42.264;23.826;2023-02-28T15:42:59;94394.94;;;6.26;90.84
61870;BME280;47810;42.264;23.826;2023-02-28T15:45:40;94390.16;;;6.14;90.81
61870;BME280;47810;42.264;23.826;2023-02-28T15:48:15;94401.19;;;6.22;91.04
61870;BME280;47810;42.264;23.826;2023-02-28T15:50:41;94399.72;;;6.15;91.21
61870;BME280;47810;42.264;23.826;2023-02-28T15:53:17;94398.97;;;6.13;91.71
61870;BME280;47810;42.264;23.826;2023-02-28T15:55:43;94404.19;;;6.13;91.63
61870;BME280;47810;42.264;23.826;2023-02-28T15:58:10;94404.38;;;6.09;91.93
61870;BME280;47810;42.264;23.826;2023-02-28T16:00:38;94403.66;;;6.03;92.14
61870;BME280;47810;42.264;23.826;2023-02-28T16:05:50;94397.69;;;6.00;92.78
61870;BME280;47810;42.264;23.826;2023-02-28T16:08:31;94406.72;;;5.93;93.32